createdAt,value
2022-10-22T00:00:53.103Z,16.16
2022-10-22T00:03:19.433Z,16.41
2022-10-22T00:05:45.799Z,16.16
2022-10-22T00:08:12.158Z,16.03
2022-10-22T00:10:38.525Z,15.82
2022-10-22T00:13:04.911Z,15.85
2022-10-22T00:15:31.248Z,15.82
2022-10-22T00:17:57.614Z,15.78
2022-10-22T00:20:23.967Z,15.73
2022-10-22T00:25:21.607Z,15.60
2022-10-22T00:27:47.989Z,15.60
2022-10-22T00:30:14.353Z,15.62
2022-10-22T00:32:40.793Z,15.77
2022-10-22T00:35:07.385Z,15.88
2022-10-22T00:37:33.747Z,16.10
2022-10-22T00:40:00.130Z,16.24
2022-10-22T00:42:26.474Z,16.38
2022-10-22T00:44:52.831Z,16.32
2022-10-22T00:47:19.159Z,16.44
2022-10-22T00:49:45.520Z,16.42
2022-10-22T00:52:11.858Z,16.44
2022-10-22T00:54:38.213Z,16.48
2022-10-22T00:57:04.597Z,16.59
2022-10-22T00:59:30.953Z,16.62
2022-10-22T01:01:57.329Z,16.68
2022-10-22T01:04:23.713Z,16.36
2022-10-22T01:06:50.059Z,16.43
2022-10-22T01:09:16.395Z,16.20
2022-10-22T01:11:42.746Z,16.05
2022-10-22T01:14:09.083Z,15.95
2022-10-22T01:16:35.453Z,15.92
2022-10-22T01:19:01.845Z,15.80
2022-10-22T01:21:28.200Z,15.96
2022-10-22T01:23:54.567Z,15.93
2022-10-22T01:26:21.261Z,15.79
2022-10-22T01:28:47.654Z,15.86
2022-10-22T01:31:14.017Z,15.75
2022-10-22T01:33:40.385Z,15.71
2022-10-22T01:36:06.730Z,15.79
2022-10-22T01:38:33.105Z,15.80
2022-10-22T01:40:59.482Z,15.74
2022-10-22T01:43:25.866Z,15.99
2022-10-22T01:45:52.230Z,16.09
2022-10-22T01:48:18.581Z,16.10
2022-10-22T01:50:44.934Z,16.11
2022-10-22T01:53:11.326Z,16.04
2022-10-22T01:55:37.692Z,16.11
2022-10-22T01:58:04.153Z,16.07
2022-10-22T02:00:30.590Z,16.01
2022-10-22T02:02:56.984Z,15.99
2022-10-22T02:05:23.353Z,15.95
2022-10-22T02:07:49.729Z,15.78
2022-10-22T02:10:16.085Z,15.71
2022-10-22T02:12:42.842Z,15.60
2022-10-22T02:15:09.455Z,15.71
2022-10-22T02:17:35.833Z,15.64
2022-10-22T02:20:02.201Z,15.56
2022-10-22T02:22:28.564Z,15.77
2022-10-22T02:24:54.912Z,15.47
2022-10-22T02:27:25.822Z,15.17
2022-10-22T02:29:53.402Z,15.23
2022-10-22T02:32:19.750Z,15.01
2022-10-22T02:34:46.109Z,15.01
2022-10-22T02:37:12.852Z,14.97
2022-10-22T02:39:39.225Z,15.01
2022-10-22T02:42:05.589Z,14.90
2022-10-22T02:44:31.973Z,15.08
2022-10-22T02:46:58.344Z,15.12
2022-10-22T02:49:24.707Z,15.15
2022-10-22T02:51:51.080Z,15.23
2022-10-22T02:54:17.442Z,15.19
2022-10-22T02:56:43.779Z,15.23
2022-10-22T02:59:10.157Z,15.29
2022-10-22T03:01:36.550Z,15.31
2022-10-22T03:04:02.907Z,15.28
2022-10-22T03:06:29.283Z,15.17
2022-10-22T03:08:55.693Z,15.17
2022-10-22T03:11:22.138Z,15.16
2022-10-22T03:13:48.492Z,14.87
2022-10-22T03:16:14.847Z,15.05
2022-10-22T03:18:41.198Z,14.70
2022-10-22T03:21:07.568Z,14.82
2022-10-22T03:23:33.921Z,14.76
2022-10-22T03:28:31.552Z,14.54
2022-10-22T03:30:57.921Z,14.66
2022-10-22T03:33:24.282Z,14.76
2022-10-22T03:35:50.638Z,14.85
2022-10-22T03:38:16.991Z,14.99
2022-10-22T03:40:43.361Z,15.07
2022-10-22T03:43:09.719Z,15.21
2022-10-22T03:45:36.059Z,15.14
2022-10-22T03:48:02.431Z,15.02
2022-10-22T03:50:28.796Z,14.98
2022-10-22T03:52:55.221Z,15.04
2022-10-22T03:55:21.577Z,14.91
2022-10-22T03:57:47.933Z,15.02
2022-10-22T04:00:14.297Z,14.88
2022-10-22T04:02:40.663Z,14.91
2022-10-22T04:05:07.069Z,15.08
2022-10-22T04:07:33.511Z,14.96
2022-10-22T04:09:59.870Z,14.77
2022-10-22T04:12:26.214Z,14.69
2022-10-22T04:14:52.567Z,14.80
2022-10-22T04:17:18.919Z,14.85
2022-10-22T04:19:45.294Z,14.98
2022-10-22T04:22:11.645Z,15.03
2022-10-22T04:24:38.063Z,15.09
2022-10-22T04:27:04.494Z,15.07
2022-10-22T04:29:30.855Z,15.07
2022-10-22T04:31:57.225Z,15.00
2022-10-22T04:34:23.576Z,14.96
2022-10-22T04:36:49.935Z,14.82
2022-10-22T04:39:16.297Z,14.88
2022-10-22T04:41:42.664Z,14.73
2022-10-22T04:44:12.326Z,14.78
2022-10-22T04:46:42.579Z,14.84
2022-10-22T04:49:08.939Z,14.90
2022-10-22T04:51:35.293Z,15.07
2022-10-22T04:54:01.667Z,15.09
2022-10-22T04:56:28.001Z,15.12
2022-10-22T04:58:54.358Z,15.06
2022-10-22T05:01:20.768Z,15.05
2022-10-22T05:03:47.175Z,15.03
2022-10-22T05:08:44.842Z,15.02
2022-10-22T05:11:11.282Z,15.03
2022-10-22T05:13:37.621Z,15.00
2022-10-22T05:16:03.993Z,14.95
2022-10-22T05:18:30.329Z,15.00
2022-10-22T05:20:56.671Z,15.01
2022-10-22T05:23:23.043Z,15.09
2022-10-22T05:25:49.396Z,15.16
2022-10-22T05:28:15.760Z,15.08
2022-10-22T05:30:42.095Z,15.07
2022-10-22T05:33:08.456Z,15.07
2022-10-22T05:35:34.822Z,14.90
2022-10-22T05:38:01.178Z,14.90
2022-10-22T05:40:31.119Z,15.09
2022-10-22T05:42:57.636Z,14.94
2022-10-22T05:45:24.010Z,15.09
2022-10-22T05:47:50.368Z,14.96
2022-10-22T05:50:16.741Z,14.97
2022-10-22T05:52:43.197Z,15.02
2022-10-22T05:55:09.787Z,15.03
2022-10-22T05:57:36.123Z,15.11
2022-10-22T06:00:02.481Z,15.30
2022-10-22T06:02:28.944Z,15.26
2022-10-22T06:04:55.344Z,15.17
2022-10-22T06:07:21.705Z,15.25
2022-10-22T06:09:48.066Z,15.26
2022-10-22T06:12:14.436Z,15.17
2022-10-22T06:14:40.788Z,15.23
2022-10-22T06:17:07.219Z,15.30
2022-10-22T06:19:33.561Z,15.14
2022-10-22T06:21:59.931Z,15.24
2022-10-22T06:24:26.286Z,15.24
2022-10-22T06:26:52.653Z,15.14
2022-10-22T06:29:18.996Z,15.17
2022-10-22T06:31:45.389Z,15.14
2022-10-22T06:34:11.756Z,15.20
2022-10-22T06:36:38.183Z,15.30
2022-10-22T06:39:04.578Z,15.46
2022-10-22T06:41:30.932Z,15.50
2022-10-22T06:43:57.460Z,15.57
2022-10-22T06:46:24.128Z,15.53
2022-10-22T06:48:50.487Z,15.69
2022-10-22T06:51:16.862Z,15.89
2022-10-22T06:53:43.238Z,16.14
2022-10-22T06:56:09.596Z,16.44
2022-10-22T06:58:35.978Z,16.42
2022-10-22T07:01:02.442Z,16.32
2022-10-22T07:03:28.863Z,16.27
2022-10-22T07:05:55.242Z,16.19
2022-10-22T07:08:21.593Z,16.28
2022-10-22T07:10:47.979Z,16.08
2022-10-22T07:13:14.346Z,16.04
2022-10-22T07:15:40.753Z,16.20
2022-10-22T07:18:07.094Z,16.10
2022-10-22T07:20:33.471Z,16.21
2022-10-22T07:22:59.817Z,16.05
2022-10-22T07:25:26.260Z,15.88
2022-10-22T07:27:52.615Z,15.94
2022-10-22T07:30:18.971Z,16.08
2022-10-22T07:32:45.330Z,16.26
2022-10-22T07:35:11.669Z,16.33
2022-10-22T07:37:38.205Z,16.35
2022-10-22T07:40:04.698Z,16.53
2022-10-22T07:42:31.065Z,16.58
2022-10-22T07:44:57.410Z,16.71
2022-10-22T07:47:23.773Z,16.29
2022-10-22T07:49:50.134Z,16.34
2022-10-22T07:52:16.467Z,15.99
2022-10-22T07:54:42.813Z,16.03
2022-10-22T07:57:09.163Z,15.93
2022-10-22T07:59:35.543Z,16.10
2022-10-22T08:02:01.902Z,15.95
2022-10-22T08:04:28.298Z,15.96
2022-10-22T08:06:54.680Z,16.10
2022-10-22T08:09:21.046Z,16.17
2022-10-22T08:11:47.387Z,15.97
2022-10-22T08:14:13.746Z,16.15
2022-10-22T08:16:40.095Z,16.24
2022-10-22T08:19:06.461Z,16.17
2022-10-22T08:21:32.829Z,16.20
2022-10-22T08:23:59.223Z,16.23
2022-10-22T08:26:25.633Z,16.35
2022-10-22T08:28:51.963Z,16.35
2022-10-22T08:31:18.319Z,16.28
2022-10-22T08:33:44.676Z,16.38
2022-10-22T08:36:11.061Z,16.76
2022-10-22T08:38:37.459Z,16.93
2022-10-22T08:41:03.804Z,16.81
2022-10-22T08:43:30.256Z,16.80
2022-10-22T08:45:56.591Z,17.00
2022-10-22T08:48:22.951Z,17.16
2022-10-22T08:50:49.297Z,17.63
2022-10-22T08:53:15.657Z,17.39
2022-10-22T08:55:42.007Z,17.47
2022-10-22T08:58:08.365Z,17.69
2022-10-22T09:00:34.727Z,17.73
2022-10-22T09:03:01.075Z,17.87
2022-10-22T09:05:27.428Z,17.40
2022-10-22T09:07:53.779Z,17.56
2022-10-22T09:10:20.149Z,17.53
2022-10-22T09:12:46.509Z,17.48
2022-10-22T09:15:12.882Z,17.67
2022-10-22T09:17:39.505Z,17.83
2022-10-22T09:20:06.157Z,17.67
2022-10-22T09:22:32.801Z,17.71
2022-10-22T09:24:59.176Z,18.09
2022-10-22T09:27:25.524Z,17.80
2022-10-22T09:29:51.879Z,18.14
2022-10-22T09:32:18.221Z,17.51
2022-10-22T09:34:44.555Z,17.41
2022-10-22T09:37:10.901Z,17.12
2022-10-22T09:39:37.259Z,17.41
2022-10-22T09:42:03.617Z,17.28
2022-10-22T09:44:29.967Z,17.54
2022-10-22T09:46:56.309Z,17.47
2022-10-22T09:49:22.657Z,17.86
2022-10-22T09:51:49.008Z,17.68
2022-10-22T09:54:15.354Z,17.67
2022-10-22T09:56:41.740Z,17.90
2022-10-22T09:59:08.115Z,17.83
2022-10-22T10:01:34.487Z,18.16
2022-10-22T10:04:00.881Z,18.41
2022-10-22T10:06:27.263Z,18.11
2022-10-22T10:08:53.680Z,18.04
2022-10-22T10:11:20.123Z,18.35
2022-10-22T10:13:46.892Z,18.01
2022-10-22T10:16:13.302Z,18.40
2022-10-22T10:18:39.640Z,18.62
2022-10-22T10:21:06.045Z,18.66
2022-10-22T10:23:32.427Z,18.84
2022-10-22T10:25:58.774Z,19.05
2022-10-22T10:28:25.129Z,18.82
2022-10-22T10:30:51.490Z,18.90
2022-10-22T10:33:17.835Z,19.14
2022-10-22T10:35:44.175Z,19.35
2022-10-22T10:38:10.584Z,19.55
2022-10-22T10:40:36.935Z,19.73
2022-10-22T10:43:03.312Z,19.68
2022-10-22T10:45:29.668Z,19.41
2022-10-22T10:47:56.017Z,19.60
2022-10-22T10:50:22.373Z,19.40
2022-10-22T10:52:48.731Z,19.95
2022-10-22T10:55:15.091Z,19.71
2022-10-22T10:57:41.648Z,19.63
2022-10-22T11:00:08.265Z,19.71
2022-10-22T11:02:34.614Z,19.51
2022-10-22T11:05:00.984Z,19.04
2022-10-22T11:07:34.573Z,19.18
2022-10-22T11:10:01.400Z,19.65
2022-10-22T11:12:27.770Z,20.26
2022-10-22T11:14:54.133Z,20.19
2022-10-22T11:17:20.498Z,20.95
2022-10-22T11:19:51.562Z,20.68
2022-10-22T11:22:19.396Z,20.28
2022-10-22T11:24:47.770Z,20.49
2022-10-22T11:27:14.118Z,20.09
2022-10-22T11:29:40.474Z,20.41
2022-10-22T11:32:06.852Z,20.61
2022-10-22T11:34:34.358Z,20.83
2022-10-22T11:37:01.020Z,20.74
2022-10-22T11:39:27.387Z,21.11
2022-10-22T11:41:53.728Z,20.89
2022-10-22T11:44:20.160Z,21.30
2022-10-22T11:46:46.546Z,21.59
2022-10-22T11:49:12.914Z,21.87
2022-10-22T11:51:39.298Z,20.99
2022-10-22T11:54:05.667Z,21.27
2022-10-22T11:56:32.029Z,21.97
2022-10-22T11:58:58.418Z,22.09
2022-10-22T12:01:24.848Z,22.38
2022-10-22T12:03:51.301Z,21.61
2022-10-22T12:06:17.687Z,21.92
2022-10-22T12:08:44.110Z,22.18
2022-10-22T12:11:10.503Z,21.52
2022-10-22T12:13:36.867Z,21.86
2022-10-22T12:16:03.239Z,21.85
2022-10-22T12:18:29.596Z,22.22
2022-10-22T12:20:55.941Z,22.38
2022-10-22T12:23:22.326Z,22.59
2022-10-22T12:25:48.686Z,22.34
2022-10-22T12:28:15.051Z,22.60
2022-10-22T12:30:41.403Z,22.81
2022-10-22T12:33:07.755Z,22.73
2022-10-22T12:35:34.106Z,22.36
2022-10-22T12:38:00.479Z,22.64
2022-10-22T12:40:26.819Z,23.22
2022-10-22T12:42:53.178Z,21.82
2022-10-22T12:45:19.517Z,21.89
2022-10-22T12:47:45.867Z,22.43
2022-10-22T12:50:12.235Z,21.66
2022-10-22T12:52:38.790Z,21.24
2022-10-22T12:55:05.291Z,21.39
2022-10-22T12:57:31.642Z,21.19
2022-10-22T12:59:58.040Z,21.16
2022-10-22T13:02:24.452Z,21.87
2022-10-22T13:04:50.921Z,21.91
2022-10-22T13:07:19.790Z,22.50
2022-10-22T13:09:47.595Z,22.90
2022-10-22T13:12:13.952Z,23.11
2022-10-22T13:14:40.301Z,23.09
2022-10-22T13:17:06.641Z,22.83
2022-10-22T13:19:33.000Z,22.24
2022-10-22T13:21:59.347Z,22.42
2022-10-22T13:24:25.683Z,22.93
2022-10-22T13:26:52.059Z,22.68
2022-10-22T13:29:18.400Z,22.20
2022-10-22T13:31:44.760Z,22.68
2022-10-22T13:34:13.015Z,21.96
2022-10-22T13:36:41.503Z,22.10
2022-10-22T13:39:07.871Z,22.51
2022-10-22T13:41:34.297Z,21.58
2022-10-22T13:44:00.652Z,21.89
2022-10-22T13:46:26.991Z,22.68
2022-10-22T13:48:53.343Z,23.13
2022-10-22T13:51:19.689Z,23.42
2022-10-22T13:53:46.053Z,23.21
2022-10-22T13:56:12.404Z,23.21
2022-10-22T13:58:40.147Z,22.34
2022-10-22T14:01:06.569Z,22.21
2022-10-22T14:03:32.940Z,22.00
2022-10-22T14:05:59.540Z,21.99
2022-10-22T14:08:25.890Z,22.89
2022-10-22T14:10:52.291Z,22.65
2022-10-22T14:13:18.662Z,22.96
2022-10-22T14:15:45.025Z,23.91
2022-10-22T14:18:11.382Z,24.13
2022-10-22T14:20:37.739Z,24.65
2022-10-22T14:23:04.116Z,24.97
2022-10-22T14:25:30.493Z,24.73
2022-10-22T14:27:56.858Z,25.41
2022-10-22T14:30:23.211Z,26.18
2022-10-22T14:32:49.591Z,26.71
2022-10-22T14:35:15.944Z,26.66
2022-10-22T14:37:42.295Z,27.16
2022-10-22T14:40:08.651Z,28.15
2022-10-22T14:42:35.030Z,27.98
2022-10-22T14:45:01.415Z,28.13
2022-10-22T14:47:27.791Z,27.22
2022-10-22T14:49:54.152Z,28.53
2022-10-22T14:52:20.510Z,29.27
2022-10-22T14:54:46.874Z,29.80
2022-10-22T14:57:13.217Z,30.19
2022-10-22T14:59:39.610Z,30.25
2022-10-22T15:02:05.973Z,30.52
2022-10-22T15:04:32.315Z,30.39
2022-10-22T15:06:58.683Z,29.70
2022-10-22T15:09:25.024Z,30.64
2022-10-22T15:11:51.368Z,31.19
2022-10-22T15:14:17.718Z,31.06
2022-10-22T15:16:44.085Z,30.46
2022-10-22T15:19:10.428Z,30.44
2022-10-22T15:21:36.826Z,29.75
2022-10-22T15:24:03.212Z,30.09
2022-10-22T15:26:29.571Z,31.00
2022-10-22T15:28:55.910Z,30.53
2022-10-22T15:31:22.307Z,30.50
2022-10-22T15:33:48.676Z,29.58
2022-10-22T15:36:15.035Z,30.33
2022-10-22T15:38:41.393Z,29.80
2022-10-22T15:41:07.735Z,27.92
2022-10-22T15:43:34.091Z,27.37
2022-10-22T15:46:00.459Z,26.28
2022-10-22T15:48:26.800Z,25.32
2022-10-22T15:50:53.150Z,23.97
2022-10-22T15:53:19.499Z,23.27
2022-10-22T15:55:45.852Z,22.92
2022-10-22T15:58:12.191Z,23.01
2022-10-22T16:00:38.602Z,23.22
2022-10-22T16:03:05.033Z,24.73
2022-10-22T16:05:31.413Z,24.76
2022-10-22T16:07:57.807Z,25.08
2022-10-22T16:10:24.246Z,26.27
2022-10-22T16:12:50.630Z,25.77
2022-10-22T16:15:16.974Z,25.07
2022-10-22T16:17:43.327Z,24.55
2022-10-22T16:20:09.736Z,24.13
2022-10-22T16:22:36.124Z,23.75
2022-10-22T16:25:02.462Z,23.31
2022-10-22T16:27:28.809Z,23.05
2022-10-22T16:29:55.278Z,22.68
2022-10-22T16:32:21.699Z,22.36
2022-10-22T16:34:48.070Z,22.25
2022-10-22T16:37:14.415Z,22.02
2022-10-22T16:39:40.791Z,21.85
2022-10-22T16:42:07.129Z,21.80
2022-10-22T16:44:33.525Z,21.68
2022-10-22T16:46:59.875Z,21.58
2022-10-22T16:49:26.237Z,21.54
2022-10-22T16:51:52.597Z,21.42
2022-10-22T16:54:18.937Z,21.42
2022-10-22T16:56:45.304Z,21.32
2022-10-22T16:59:11.640Z,21.27
2022-10-22T17:01:41.022Z,21.23
2022-10-22T17:04:07.788Z,21.20
2022-10-22T17:06:34.146Z,21.14
2022-10-22T17:09:00.597Z,20.94
2022-10-22T17:11:27.003Z,20.83
2022-10-22T17:13:53.355Z,20.76
2022-10-22T17:16:19.696Z,20.76
2022-10-22T17:21:17.300Z,20.74
2022-10-22T17:23:43.677Z,20.64
2022-10-22T17:26:10.025Z,20.63
2022-10-22T17:28:36.432Z,20.56
2022-10-22T17:31:02.778Z,20.50
2022-10-22T17:33:29.132Z,20.54
2022-10-22T17:35:55.493Z,20.66
2022-10-22T17:38:21.837Z,20.52
2022-10-22T17:40:48.195Z,20.44
2022-10-22T17:43:14.566Z,20.29
2022-10-22T17:45:40.953Z,20.21
2022-10-22T17:48:07.302Z,20.17
2022-10-22T17:50:33.674Z,19.98
2022-10-22T17:53:00.045Z,20.04
2022-10-22T17:55:26.424Z,19.97
2022-10-22T17:57:52.794Z,19.84
2022-10-22T18:02:46.426Z,19.97
2022-10-22T18:05:12.785Z,19.96
2022-10-22T18:07:39.140Z,19.97
2022-10-22T18:10:05.505Z,19.93
2022-10-22T18:12:31.865Z,19.82
2022-10-22T18:14:58.217Z,19.76
2022-10-22T18:17:24.594Z,19.69
2022-10-22T18:19:50.967Z,19.62
2022-10-22T18:22:17.342Z,19.61
2022-10-22T18:24:43.699Z,19.58
2022-10-22T18:27:10.058Z,19.57
2022-10-22T18:29:36.409Z,19.56
2022-10-22T18:32:02.770Z,19.53
2022-10-22T18:34:29.139Z,19.47
2022-10-22T18:36:55.541Z,19.46
2022-10-22T18:39:21.939Z,19.42
2022-10-22T18:41:48.374Z,19.38
2022-10-22T18:44:14.732Z,19.37
2022-10-22T18:46:41.095Z,19.37
2022-10-22T18:49:07.449Z,19.41
2022-10-22T18:51:33.813Z,19.43
2022-10-22T18:54:06.028Z,19.43
2022-10-22T18:56:44.472Z,19.43
2022-10-22T18:59:10.836Z,19.44
2022-10-22T19:01:37.240Z,19.38
2022-10-22T19:04:03.640Z,19.43
2022-10-22T19:06:33.208Z,19.45
2022-10-22T19:09:02.236Z,19.46
2022-10-22T19:11:28.641Z,19.40
2022-10-22T19:13:54.995Z,19.29
2022-10-22T19:16:21.356Z,19.32
2022-10-22T19:18:47.701Z,19.26
2022-10-22T19:21:14.063Z,19.18
2022-10-22T19:23:40.440Z,19.19
2022-10-22T19:26:06.865Z,19.16
2022-10-22T19:28:33.204Z,19.25
2022-10-22T19:30:59.559Z,19.15
2022-10-22T19:33:25.914Z,19.19
2022-10-22T19:35:52.279Z,19.22
2022-10-22T19:38:18.645Z,19.21
2022-10-22T19:40:44.989Z,19.14
2022-10-22T19:43:12.304Z,19.11
2022-10-22T19:45:39.215Z,18.90
2022-10-22T19:48:05.593Z,18.98
2022-10-22T19:50:31.943Z,19.02
2022-10-22T19:52:58.308Z,19.02
2022-10-22T19:55:24.663Z,19.01
2022-10-22T19:57:51.015Z,18.91
2022-10-22T20:00:17.381Z,18.98
2022-10-22T20:02:43.732Z,19.02
2022-10-22T20:05:10.136Z,18.95
2022-10-22T20:07:36.513Z,18.91
2022-10-22T20:10:02.868Z,18.94
2022-10-22T20:12:29.237Z,18.95
2022-10-22T20:14:55.588Z,18.96
2022-10-22T20:17:21.945Z,18.92
2022-10-22T20:19:48.298Z,18.88
2022-10-22T20:22:17.799Z,18.85
2022-10-22T20:24:45.198Z,18.77
2022-10-22T20:27:11.573Z,18.77
2022-10-22T20:29:37.945Z,18.73
2022-10-22T20:32:06.679Z,18.74
2022-10-22T20:34:35.113Z,18.79
2022-10-22T20:37:01.477Z,18.84
2022-10-22T20:39:27.845Z,18.83
2022-10-22T20:41:54.197Z,18.84
2022-10-22T20:44:20.541Z,18.82
2022-10-22T20:46:46.959Z,18.84
2022-10-22T20:49:13.375Z,18.71
2022-10-22T20:51:39.732Z,18.66
2022-10-22T20:54:06.098Z,18.66
2022-10-22T20:56:32.455Z,18.62
2022-10-22T20:58:58.807Z,18.75
2022-10-22T21:01:25.274Z,18.84
2022-10-22T21:03:51.658Z,18.75
2022-10-22T21:06:18.022Z,18.71
2022-10-22T21:08:44.422Z,18.68
2022-10-22T21:11:10.801Z,18.68
2022-10-22T21:13:37.170Z,18.65
2022-10-22T21:16:03.526Z,18.58
2022-10-22T21:18:29.906Z,18.45
2022-10-22T21:20:56.255Z,18.31
2022-10-22T21:23:22.604Z,18.31
2022-10-22T21:25:48.977Z,18.26
2022-10-22T21:28:15.327Z,18.27
2022-10-22T21:30:41.698Z,18.16
2022-10-22T21:33:08.068Z,18.17
2022-10-22T21:35:34.427Z,18.15
2022-10-22T21:38:00.782Z,18.21
2022-10-22T21:40:27.166Z,18.29
2022-10-22T21:42:53.500Z,18.32
2022-10-22T21:45:22.315Z,18.22
2022-10-22T21:47:48.938Z,18.17
2022-10-22T21:50:15.302Z,18.10
2022-10-22T21:52:41.683Z,18.10
2022-10-22T21:55:08.028Z,18.03
2022-10-22T21:57:34.404Z,18.20
2022-10-22T22:00:00.749Z,18.19
2022-10-22T22:02:27.122Z,18.03
2022-10-22T22:04:53.468Z,17.99
2022-10-22T22:07:19.834Z,17.98
2022-10-22T22:09:46.175Z,17.85
2022-10-22T22:12:12.513Z,17.81
2022-10-22T22:14:38.880Z,17.78
2022-10-22T22:17:05.365Z,17.79
2022-10-22T22:19:31.746Z,17.81
2022-10-22T22:21:58.083Z,17.72
2022-10-22T22:24:24.451Z,17.68
2022-10-22T22:26:52.256Z,17.70
2022-10-22T22:29:18.629Z,17.73
2022-10-22T22:31:44.987Z,17.75
2022-10-22T22:34:11.331Z,17.88
2022-10-22T22:36:37.706Z,17.81
2022-10-22T22:39:04.072Z,17.80
2022-10-22T22:41:30.428Z,17.81
2022-10-22T22:43:56.805Z,17.71
2022-10-22T22:46:23.171Z,17.67
2022-10-22T22:48:49.523Z,17.67
2022-10-22T22:51:15.856Z,17.66
2022-10-22T22:53:42.203Z,17.64
2022-10-22T22:56:08.547Z,17.64
2022-10-22T22:58:34.893Z,17.60
2022-10-22T23:01:01.263Z,17.59
2022-10-22T23:03:27.624Z,17.56
2022-10-22T23:05:53.991Z,17.56
2022-10-22T23:08:20.335Z,17.54
2022-10-22T23:10:46.682Z,17.52
2022-10-22T23:13:13.032Z,17.46
2022-10-22T23:15:39.391Z,17.45
2022-10-22T23:18:05.761Z,17.55
2022-10-22T23:20:32.135Z,17.46
2022-10-22T23:22:58.529Z,17.43
2022-10-22T23:25:24.883Z,17.41
2022-10-22T23:27:51.274Z,17.44
2022-10-22T23:30:17.625Z,17.41
2022-10-22T23:32:43.997Z,17.52
2022-10-22T23:35:10.370Z,17.46
2022-10-22T23:37:36.721Z,17.28
2022-10-22T23:40:03.094Z,17.35
2022-10-22T23:42:29.484Z,17.32
2022-10-22T23:44:55.880Z,17.37
2022-10-22T23:47:22.218Z,17.44
2022-10-22T23:49:48.566Z,17.37
2022-10-22T23:52:14.921Z,17.25
2022-10-22T23:54:41.270Z,17.06
2022-10-22T23:57:07.645Z,17.11
2022-10-22T23:59:34.002Z,17.14
